Time;durP1;ratioP1;P1;durP2;ratioP2;P2;SDS_P1;SDS_P2;PMS_P1;PMS_P2;Temp;Humidity;BMP_temperature;BMP_pressure;BME280_temperature;BME280_humidity;BME280_pressure;Samples;Min_cycle;Max_cycle;Signal;HPM_P1;HPM_P2
2023/03/28 00:01:27;;;;;;;13.30;2.25;;;2.20;99.90;;;;;;5047193;28;20027;-39
2023/03/28 00:03:53;;;;;;;11.00;2.13;;;2.20;99.90;;;;;;5054605;28;20021;-39
2023/03/28 00:06:20;;;;;;;14.32;2.17;;;2.20;99.90;;;;;;5054839;28;20387;-39
2023/03/28 00:08:46;;;;;;;9.15;2.22;;;2.20;99.90;;;;;;5055274;28;20024;-39
2023/03/28 00:11:18;;;;;;;4.90;1.75;;;2.10;99.90;;;;;;5053515;28;20032;-39
2023/03/28 00:14:02;;;;;;;6.70;1.88;;;2.10;99.90;;;;;;5054981;28;20017;-39
2023/03/28 00:16:33;;;;;;;9.70;2.05;;;2.10;99.90;;;;;;5054427;28;20021;-39
2023/03/28 00:19:04;;;;;;;13.43;2.00;;;2.00;99.90;;;;;;5054834;28;20032;-39
2023/03/28 00:21:33;;;;;;;5.65;1.75;;;2.00;99.90;;;;;;5055842;28;20386;-39
2023/03/28 00:24:01;;;;;;;8.48;2.22;;;1.90;99.90;;;;;;5054942;28;20025;-39
2023/03/28 00:26:33;;;;;;;6.38;1.98;;;1.90;99.90;;;;;;5054680;28;20078;-40
2023/03/28 00:29:01;;;;;;;7.70;2.10;;;1.90;99.90;;;;;;5053600;28;20129;-39
2023/03/28 00:31:28;;;;;;;13.63;2.72;;;2.00;99.90;;;;;;5054727;28;20021;-39
2023/03/28 00:33:55;;;;;;;5.70;1.95;;;1.90;99.90;;;;;;5054629;28;20281;-39
2023/03/28 00:36:22;;;;;;;5.32;1.98;;;1.90;99.90;;;;;;5053124;28;20024;-40
2023/03/28 00:38:56;;;;;;;12.55;2.97;;;1.90;99.90;;;;;;5054982;28;20075;-39
2023/03/28 00:41:23;;;;;;;9.25;3.17;;;1.90;99.90;;;;;;5070097;28;20028;-39
2023/03/28 00:43:51;;;;;;;10.55;2.75;;;1.90;99.90;;;;;;5054434;28;20017;-39
2023/03/28 00:46:23;;;;;;;10.98;2.33;;;1.90;99.90;;;;;;5053997;28;20096;-40
2023/03/28 00:49:04;;;;;;;11.95;2.63;;;1.90;99.90;;;;;;5052924;28;20037;-39
2023/03/28 00:51:51;;;;;;;8.38;2.38;;;1.90;99.90;;;;;;5054712;28;20032;-39
2023/03/28 00:54:19;;;;;;;14.15;3.65;;;1.90;99.90;;;;;;5054585;28;20064;-39
2023/03/28 00:56:50;;;;;;;9.15;2.60;;;1.90;99.90;;;;;;5053924;28;20025;-39
2023/03/28 00:59:19;;;;;;;10.75;2.80;;;1.90;99.90;;;;;;5054392;28;20091;-39
2023/03/28 01:01:46;;;;;;;16.90;3.63;;;2.00;99.90;;;;;;5054827;28;20024;-39
2023/03/28 01:04:19;;;;;;;16.55;2.97;;;2.00;99.90;;;;;;5052633;28;20104;-40
2023/03/28 01:06:47;;;;;;;13.60;3.25;;;2.00;99.90;;;;;;5047845;28;20016;-40
2023/03/28 01:09:15;;;;;;;7.95;3.08;;;2.00;99.90;;;;;;5048771;28;20037;-40
2023/03/28 01:11:43;;;;;;;9.50;3.30;;;2.00;99.90;;;;;;5049849;28;20017;-39
2023/03/28 01:14:12;;;;;;;14.63;2.90;;;1.90;99.90;;;;;;5044414;28;20025;-39
2023/03/28 01:16:40;;;;;;;10.23;3.38;;;1.90;99.90;;;;;;5044521;28;20021;-39
2023/03/28 01:19:20;;;;;;;10.65;3.22;;;1.90;99.90;;;;;;5040609;28;20025;-39
2023/03/28 01:22:01;;;;;;;20.05;3.42;;;1.80;99.90;;;;;;5044512;28;20044;-39
2023/03/28 01:25:07;;;;;;;6.28;2.10;;;1.90;99.90;;;;;;5045077;28;20095;-40
2023/03/28 01:27:45;;;;;;;9.25;2.75;;;1.90;99.90;;;;;;5042246;28;20033;-40
2023/03/28 01:30:39;;;;;;;11.30;2.80;;;1.80;99.90;;;;;;5051247;28;20017;-40
2023/03/28 01:33:23;;;;;;;11.05;2.67;;;1.80;99.90;;;;;;5049431;28;20029;-40
2023/03/28 01:36:27;;;;;;;8.38;2.83;;;1.80;99.90;;;;;;5050632;28;20063;-40
2023/03/28 01:39:13;;;;;;;11.07;2.80;;;1.70;99.90;;;;;;5049399;28;20483;-41
2023/03/28 01:42:06;;;;;;;9.00;2.38;;;1.70;99.90;;;;;;5043170;28;20151;-42
2023/03/28 01:44:37;;;;;;;11.70;2.83;;;1.70;99.90;;;;;;5049302;28;20016;-41
2023/03/28 01:47:02;;;;;;;14.75;2.45;;;1.70;99.90;;;;;;5050022;28;20410;-41
2023/03/28 01:49:36;;;;;;;16.33;2.92;;;1.70;99.90;;;;;;5050785;28;20079;-40
2023/03/28 01:52:20;;;;;;;11.15;3.17;;;1.70;99.90;;;;;;5047499;28;20116;-40
2023/03/28 01:55:29;;;;;;;16.35;3.50;;;1.70;99.90;;;;;;5045573;28;20554;-40
2023/03/28 01:58:06;;;;;;;11.35;2.92;;;1.70;99.90;;;;;;5042705;28;20060;-41
2023/03/28 02:00:44;;;;;;;12.82;3.05;;;1.60;99.90;;;;;;5044686;28;20051;-40
2023/03/28 02:03:13;;;;;;;7.75;3.63;;;1.70;99.90;;;;;;5049827;28;20017;-40
2023/03/28 02:05:40;;;;;;;13.15;3.22;;;1.70;99.90;;;;;;5050239;28;20068;-40
2023/03/28 02:08:08;;;;;;;14.98;3.92;;;1.70;99.90;;;;;;5050384;28;20055;-40
2023/03/28 02:10:37;;;;;;;19.05;4.85;;;1.70;99.90;;;;;;5048331;28;20100;-40
2023/03/28 02:13:09;;;;;;;20.73;5.22;;;1.70;99.90;;;;;;5048898;28;20558;-40
2023/03/28 02:15:35;;;;;;;20.98;6.05;;;1.70;99.90;;;;;;5031929;28;20025;-40
2023/03/28 02:18:07;;;;;;;24.80;6.72;;;1.70;99.90;;;;;;5049502;28;20044;-40
2023/03/28 02:20:35;;;;;;;18.13;5.45;;;1.80;99.90;;;;;;5049956;28;20475;-40
2023/03/28 02:23:08;;;;;;;17.33;5.55;;;1.80;99.90;;;;;;5050038;28;20032;-40
2023/03/28 02:25:35;;;;;;;22.38;7.10;;;1.90;99.90;;;;;;5049500;28;20481;-40
2023/03/28 02:28:04;;;;;;;18.55;5.70;;;1.90;99.90;;;;;;5049646;28;20056;-40
2023/03/28 02:30:30;;;;;;;17.08;5.22;;;1.90;99.90;;;;;;5049811;28;20474;-41
2023/03/28 02:33:00;;;;;;;16.33;5.32;;;1.90;99.90;;;;;;5048176;28;20086;-41
2023/03/28 02:35:57;;;;;;;27.77;6.45;;;2.00;99.90;;;;;;5049603;28;20028;-41
2023/03/28 02:38:44;;;;;;;12.50;4.38;;;2.00;99.90;;;;;;5045123;28;20036;-41
2023/03/28 02:41:16;;;;;;;17.75;5.10;;;2.00;99.90;;;;;;5047144;28;20036;-41
2023/03/28 02:43:44;;;;;;;15.52;4.53;;;2.00;99.90;;;;;;5048456;28;20012;-41
2023/03/28 02:46:25;;;;;;;18.95;4.20;;;2.10;99.90;;;;;;5048110;28;20087;-40
2023/03/28 02:49:14;;;;;;;8.98;4.30;;;2.00;99.90;;;;;;5047391;28;20025;-40
2023/03/28 02:51:57;;;;;;;19.05;4.00;;;2.00;99.90;;;;;;5046770;28;20025;-40
2023/03/28 02:54:37;;;;;;;13.05;3.83;;;2.00;99.90;;;;;;5048241;28;20509;-40
2023/03/28 02:57:06;;;;;;;;;;;2.00;99.90;;;;;;5040193;28;20032;-41
2023/03/28 02:59:57;;;;;;;16.60;4.55;;;2.00;99.90;;;;;;5045375;28;20220;-41
2023/03/28 03:02:23;;;;;;;14.32;4.45;;;2.00;99.90;;;;;;5040809;28;20059;-41
2023/03/28 03:04:56;;;;;;;8.52;3.15;;;2.00;99.90;;;;;;5048181;28;20020;-43
2023/03/28 03:07:22;;;;;;;12.85;3.28;;;2.00;99.90;;;;;;5069804;28;20032;-41
2023/03/28 03:09:52;;;;;;;15.10;3.22;;;2.00;99.90;;;;;;5047977;28;20048;-39
2023/03/28 03:12:19;;;;;;;21.02;4.00;;;2.00;99.90;;;;;;5047978;28;20017;-39
2023/03/28 03:14:44;;;;;;;12.63;3.20;;;2.00;99.90;;;;;;5048208;28;20047;-40
2023/03/28 03:17:10;;;;;;;11.00;3.38;;;2.00;99.90;;;;;;5055830;28;20139;-40
2023/03/28 03:19:36;;;;;;;13.02;3.65;;;2.00;99.90;;;;;;5047724;28;20100;-40
2023/03/28 03:22:02;;;;;;;19.27;4.80;;;2.00;99.90;;;;;;5047863;28;20017;-40
2023/03/28 03:24:28;;;;;;;17.10;4.03;;;2.00;99.90;;;;;;5046819;28;20501;-39
2023/03/28 03:26:53;;;;;;;10.32;3.80;;;2.10;99.90;;;;;;5047524;28;20021;-40
2023/03/28 03:29:19;;;;;;;16.52;4.28;;;2.10;99.90;;;;;;5048192;28;20081;-40
2023/03/28 03:31:45;;;;;;;16.05;3.78;;;2.00;99.90;;;;;;5046546;28;20024;-40
2023/03/28 03:34:10;;;;;;;10.40;4.20;;;2.10;99.90;;;;;;5048058;28;20398;-39
2023/03/28 03:36:36;;;;;;;14.73;4.80;;;2.10;99.90;;;;;;5047653;28;20032;-39
2023/03/28 03:39:02;;;;;;;13.00;4.15;;;2.00;99.90;;;;;;5048239;28;20133;-39
2023/03/28 03:41:28;;;;;;;12.35;4.05;;;2.00;99.90;;;;;;5048345;28;20546;-39
2023/03/28 03:43:53;;;;;;;17.63;4.75;;;2.00;99.90;;;;;;5048538;28;20279;-39
2023/03/28 03:46:19;;;;;;;11.30;4.22;;;1.90;99.90;;;;;;5048190;28;20564;-40
2023/03/28 03:48:44;;;;;;;15.00;3.85;;;1.90;99.90;;;;;;5048302;28;20028;-39
2023/03/28 03:51:10;;;;;;;11.40;3.90;;;1.80;99.90;;;;;;5048778;28;20593;-40
2023/03/28 03:53:35;;;;;;;15.93;4.65;;;1.80;99.90;;;;;;5048095;28;20025;-39
2023/03/28 03:56:02;;;;;;;13.38;4.22;;;1.80;99.90;;;;;;5046766;28;20029;-39
2023/03/28 03:58:27;;;;;;;17.05;4.70;;;1.80;99.90;;;;;;5048248;28;20025;-39
2023/03/28 04:00:53;;;;;;;17.55;4.45;;;1.80;99.90;;;;;;5047031;28;20279;-39
2023/03/28 04:03:18;;;;;;;14.25;4.38;;;1.70;99.90;;;;;;5042496;28;20029;-40
2023/03/28 04:05:44;;;;;;;13.23;4.03;;;1.80;99.90;;;;;;5048198;28;20333;-40
2023/03/28 04:08:09;;;;;;;8.38;3.85;;;1.70;99.90;;;;;;5048315;28;20033;-39
2023/03/28 04:10:35;;;;;;;16.13;5.05;;;1.70;99.90;;;;;;5048272;28;20432;-39
2023/03/28 04:13:01;;;;;;;16.17;4.80;;;1.70;99.90;;;;;;5048302;28;20021;-39
2023/03/28 04:15:26;;;;;;;15.77;4.70;;;1.70;99.90;;;;;;5048036;28;20486;-39
2023/03/28 04:17:55;;;;;;;11.80;3.92;;;1.70;99.90;;;;;;5047847;28;20024;-40
2023/03/28 04:20:24;;;;;;;8.80;4.00;;;1.70;99.90;;;;;;5047131;28;20028;-39
2023/03/28 04:22:50;;;;;;;20.70;5.07;;;1.70;99.90;;;;;;5048466;28;20049;-39
2023/03/28 04:25:16;;;;;;;11.98;3.83;;;1.70;99.90;;;;;;5048064;28;20525;-40
2023/03/28 04:27:47;;;;;;;10.38;3.20;;;1.70;99.90;;;;;;5046955;28;20053;-40
2023/03/28 04:30:16;;;;;;;14.52;3.83;;;1.70;99.90;;;;;;5041297;28;20044;-40
2023/03/28 04:32:43;;;;;;;9.82;3.72;;;1.70;99.90;;;;;;5041342;28;20053;-40
2023/03/28 04:35:10;;;;;;;14.20;4.38;;;1.80;99.90;;;;;;5040891;28;20375;-40
2023/03/28 04:37:36;;;;;;;8.93;3.05;;;1.70;99.90;;;;;;5042309;28;20487;-39
2023/03/28 04:40:03;;;;;;;20.08;4.20;;;1.70;99.90;;;;;;5047666;28;20086;-40
2023/03/28 04:42:29;;;;;;;15.95;3.78;;;1.70;99.90;;;;;;5046623;28;20510;-40
2023/03/28 04:44:54;;;;;;;11.73;4.30;;;1.70;99.90;;;;;;5070013;28;20051;-40
2023/03/28 04:47:20;;;;;;;12.40;3.30;;;1.70;99.90;;;;;;5046161;28;20025;-40
2023/03/28 04:49:47;;;;;;;8.20;3.55;;;1.70;99.90;;;;;;5049483;28;20025;-40
2023/03/28 04:52:13;;;;;;;9.43;3.78;;;1.70;99.90;;;;;;5051392;28;20029;-40
2023/03/28 04:54:38;;;;;;;10.63;4.13;;;1.70;99.90;;;;;;5051400;28;20024;-40
2023/03/28 04:57:04;;;;;;;15.75;3.75;;;1.70;99.90;;;;;;5050942;28;20506;-42
2023/03/28 04:59:30;;;;;;;14.27;5.80;;;1.70;99.90;;;;;;5051463;28;20063;-42
2023/03/28 05:01:56;;;;;;;21.83;3.97;;;1.70;99.90;;;;;;5051772;28;20025;-40
2023/03/28 05:04:23;;;;;;;14.32;4.70;;;1.70;99.90;;;;;;5051203;28;20025;-40
2023/03/28 05:06:49;;;;;;;19.88;4.82;;;1.70;99.90;;;;;;5051069;28;20024;-40
2023/03/28 05:09:16;;;;;;;16.75;5.35;;;1.70;99.90;;;;;;5051540;28;20055;-40
2023/03/28 05:11:42;;;;;;;13.88;4.85;;;1.80;99.90;;;;;;5066245;28;20482;-40
2023/03/28 05:14:08;;;;;;;22.45;5.25;;;1.80;99.90;;;;;;5051097;28;20116;-40
2023/03/28 05:16:33;;;;;;;16.95;6.47;;;1.80;99.90;;;;;;5051123;28;20108;-41
2023/03/28 05:19:00;;;;;;;15.00;5.95;;;1.80;99.90;;;;;;5050927;28;20057;-41
2023/03/28 05:21:25;;;;;;;17.13;5.32;;;1.80;99.90;;;;;;5051351;28;20021;-41
2023/03/28 05:23:50;;;;;;;22.35;6.00;;;1.90;99.90;;;;;;5049795;28;20053;-40
2023/03/28 05:26:16;;;;;;;21.40;5.70;;;1.90;99.90;;;;;;5050548;28;20494;-40
2023/03/28 05:28:42;;;;;;;11.55;5.53;;;1.90;99.90;;;;;;5050899;28;20035;-41
2023/03/28 05:31:08;;;;;;;11.38;5.47;;;1.90;99.90;;;;;;5050601;28;20025;-41
2023/03/28 05:33:34;;;;;;;18.15;5.25;;;1.90;99.90;;;;;;5050024;28;20063;-41
2023/03/28 05:36:01;;;;;;;16.33;4.57;;;1.90;99.90;;;;;;5050505;28;20498;-41
2023/03/28 05:38:32;;;;;;;14.90;4.82;;;2.00;99.90;;;;;;5050818;28;20048;-41
2023/03/28 05:40:58;;;;;;;11.90;5.07;;;2.00;99.90;;;;;;5050780;28;20112;-41
2023/03/28 05:43:24;;;;;;;22.73;7.55;;;2.00;99.90;;;;;;5050717;28;20299;-41
2023/03/28 05:45:49;;;;;;;15.38;4.95;;;2.00;99.90;;;;;;5050605;28;20044;-40
2023/03/28 05:48:15;;;;;;;15.75;5.63;;;2.10;99.90;;;;;;5050268;28;20045;-40
2023/03/28 05:50:43;;;;;;;18.17;6.13;;;2.00;99.90;;;;;;5049382;28;20048;-41
2023/03/28 05:53:09;;;;;;;25.17;6.18;;;2.10;99.90;;;;;;5045398;28;20463;-40
2023/03/28 05:55:35;;;;;;;24.40;5.32;;;2.20;99.90;;;;;;5054413;28;20100;-41
2023/03/28 05:58:00;;;;;;;21.95;5.70;;;2.20;99.90;;;;;;5054991;28;20433;-40
2023/03/28 06:00:27;;;;;;;20.17;5.72;;;2.30;99.90;;;;;;5049324;28;20055;-40
2023/03/28 06:02:53;;;;;;;18.27;7.28;;;2.30;99.90;;;;;;5048328;28;20248;-40
2023/03/28 06:05:19;;;;;;;17.30;5.45;;;2.40;99.90;;;;;;5049318;28;20031;-40
2023/03/28 06:07:45;;;;;;;11.35;5.35;;;2.40;99.90;;;;;;5050071;28;20021;-40
2023/03/28 06:10:12;;;;;;;18.77;5.80;;;2.50;99.90;;;;;;5049978;28;20083;-40
2023/03/28 06:12:37;;;;;;;27.70;6.07;;;2.50;99.90;;;;;;5048152;28;20083;-39
2023/03/28 06:15:04;;;;;;;18.00;5.82;;;2.50;99.90;;;;;;5048923;28;20449;-40
2023/03/28 06:17:30;;;;;;;21.05;8.13;;;2.60;99.90;;;;;;5049570;28;20143;-40
2023/03/28 06:19:56;;;;;;;93.93;41.10;;;2.70;99.90;;;;;;5048935;28;20055;-40
2023/03/28 06:22:21;;;;;;;15.68;6.90;;;2.70;99.90;;;;;;5049692;28;20479;-40
2023/03/28 06:24:47;;;;;;;18.45;6.30;;;2.70;99.90;;;;;;5049125;28;20025;-40
2023/03/28 06:27:12;;;;;;;21.15;6.15;;;2.70;99.90;;;;;;5048338;28;20032;-41
2023/03/28 06:29:38;;;;;;;17.98;5.47;;;2.80;99.90;;;;;;5049288;28;20041;-42
2023/03/28 06:32:03;;;;;;;11.80;5.72;;;2.90;99.90;;;;;;5049103;28;20112;-40
2023/03/28 06:34:29;;;;;;;25.45;5.90;;;2.90;99.90;;;;;;5048819;28;20078;-41
2023/03/28 06:36:55;;;;;;;21.08;5.75;;;2.90;99.90;;;;;;5048831;28;20116;-42
2023/03/28 06:39:20;;;;;;;16.52;4.90;;;3.00;99.90;;;;;;5047706;28;20020;-41
2023/03/28 06:41:46;;;;;;;22.98;5.68;;;3.00;99.90;;;;;;5049163;28;20090;-42
2023/03/28 06:44:11;;;;;;;26.65;5.45;;;3.00;99.90;;;;;;5048790;28;20609;-41
2023/03/28 06:46:37;;;;;;;19.95;5.45;;;3.00;99.90;;;;;;5048480;28;20052;-42
2023/03/28 06:49:04;;;;;;;16.67;6.75;;;3.00;99.90;;;;;;5048571;28;20117;-42
2023/03/28 06:51:29;;;;;;;20.67;6.28;;;3.00;99.90;;;;;;5049145;28;20032;-42
2023/03/28 06:53:55;;;;;;;14.65;6.30;;;3.10;99.90;;;;;;5048516;28;20028;-41
2023/03/28 06:56:20;;;;;;;20.20;7.65;;;3.10;99.90;;;;;;5046175;28;20021;-42
2023/03/28 06:58:46;;;;;;;14.05;5.78;;;3.10;99.90;;;;;;5047780;28;20025;-42
2023/03/28 07:01:11;;;;;;;15.25;5.55;;;3.20;99.90;;;;;;5048687;28;20286;-42
2023/03/28 07:03:37;;;;;;;21.63;5.25;;;3.20;99.90;;;;;;5048374;28;20478;-42
2023/03/28 07:06:07;;;;;;;24.85;6.07;;;3.30;99.90;;;;;;5048516;28;20083;-41
2023/03/28 07:08:33;;;;;;;17.15;5.72;;;3.30;99.90;;;;;;5048845;28;20103;-42
2023/03/28 07:10:59;;;;;;;18.27;5.90;;;3.30;99.90;;;;;;5048242;28;20437;-41
2023/03/28 07:13:24;;;;;;;22.35;5.57;;;3.40;99.90;;;;;;5046485;28;20033;-41
2023/03/28 07:16:01;;;;;;;14.80;4.88;;;3.40;99.90;;;;;;5048231;28;20041;-42
2023/03/28 07:18:27;;;;;;;13.52;5.03;;;3.50;99.90;;;;;;5047972;28;20182;-41
2023/03/28 07:20:53;;;;;;;18.27;4.80;;;3.60;99.90;;;;;;5048028;28;20502;-40
2023/03/28 07:23:20;;;;;;;22.92;5.00;;;3.70;99.90;;;;;;5047918;28;20036;-41
2023/03/28 07:25:45;;;;;;;13.35;4.55;;;3.70;99.90;;;;;;5047472;28;20025;-41
2023/03/28 07:28:11;;;;;;;18.75;4.07;;;3.70;99.90;;;;;;5047872;28;20435;-40
2023/03/28 07:30:36;;;;;;;12.00;3.55;;;3.80;99.90;;;;;;5048156;28;20498;-40
2023/03/28 07:33:02;;;;;;;15.77;3.45;;;3.80;99.90;;;;;;5047447;28;20033;-40
2023/03/28 07:35:27;;;;;;;15.00;3.53;;;3.90;99.90;;;;;;5047776;28;20036;-40
2023/03/28 07:37:53;;;;;;;12.57;3.65;;;4.10;99.90;;;;;;5047526;28;20029;-41
2023/03/28 07:40:18;;;;;;;20.23;3.85;;;4.40;99.90;;;;;;5048469;28;20025;-40
2023/03/28 07:42:44;;;;;;;10.23;3.33;;;4.40;99.90;;;;;;5048540;28;20050;-40
2023/03/28 07:45:10;;;;;;;7.53;3.38;;;4.50;99.90;;;;;;5047726;28;20549;-40
2023/03/28 07:47:35;;;;;;;14.98;4.85;;;4.70;99.90;;;;;;5047801;28;20060;-40
2023/03/28 07:50:02;;;;;;;12.48;3.40;;;4.70;99.90;;;;;;5047568;28;20052;-41
2023/03/28 07:52:28;;;;;;;11.90;3.33;;;4.60;99.90;;;;;;5047576;28;20575;-41
2023/03/28 07:54:54;;;;;;;11.68;3.17;;;4.60;99.90;;;;;;5045863;28;20116;-41
2023/03/28 07:57:19;;;;;;;12.13;3.40;;;4.70;99.90;;;;;;5045762;28;20021;-41
2023/03/28 07:59:45;;;;;;;13.60;4.00;;;4.70;99.90;;;;;;5047367;28;20294;-41
2023/03/28 08:02:11;;;;;;;8.60;3.28;;;4.80;99.90;;;;;;5047651;28;20021;-41
2023/03/28 08:04:37;;;;;;;13.98;3.88;;;4.80;99.90;;;;;;5047404;28;20482;-41
2023/03/28 08:07:02;;;;;;;18.65;3.33;;;4.90;99.90;;;;;;5044217;28;20450;-41
2023/03/28 08:09:28;;;;;;;15.73;3.70;;;4.90;99.90;;;;;;5040363;28;20391;-41
2023/03/28 08:11:54;;;;;;;9.32;3.58;;;4.90;99.90;;;;;;5040159;28;20021;-42
2023/03/28 08:14:19;;;;;;;18.02;4.47;;;4.90;99.90;;;;;;5071486;28;20090;-41
2023/03/28 08:16:45;;;;;;;19.27;4.25;;;5.00;99.90;;;;;;5047481;28;20028;-41
2023/03/28 08:19:11;;;;;;;14.55;4.13;;;5.20;99.90;;;;;;5046858;28;20025;-41
2023/03/28 08:21:36;;;;;;;11.13;3.10;;;5.30;99.90;;;;;;5047598;28;20025;-41
2023/03/28 08:24:04;;;;;;;16.55;3.40;;;5.50;99.90;;;;;;5049792;28;20021;-41
2023/03/28 08:26:30;;;;;;;18.23;4.40;;;5.90;99.90;;;;;;5051013;28;20392;-41
2023/03/28 08:28:57;;;;;;;15.68;3.97;;;6.20;99.90;;;;;;5051570;28;20033;-41
2023/03/28 08:31:25;;;;;;;19.38;4.65;;;6.40;99.90;;;;;;5052256;28;20029;-41
2023/03/28 08:33:52;;;;;;;10.57;3.10;;;6.60;99.90;;;;;;5050797;28;20029;-42
2023/03/28 08:36:19;;;;;;;17.52;3.38;;;6.70;99.90;;;;;;5051217;28;20079;-41
2023/03/28 08:38:48;;;;;;;16.35;3.78;;;6.60;99.90;;;;;;5050753;28;20025;-42
2023/03/28 08:41:23;;;;;;;16.95;3.13;;;6.50;99.90;;;;;;5051470;28;20017;-41
2023/03/28 08:44:16;;;;;;;15.73;3.17;;;6.40;99.90;;;;;;5051444;28;20021;-41
2023/03/28 08:46:44;;;;;;;18.55;3.30;;;7.00;99.90;;;;;;5044793;28;20068;-39
2023/03/28 08:49:13;;;;;;;8.98;2.63;;;8.60;99.90;;;;;;5043987;28;20561;-40
2023/03/28 08:51:42;;;;;;;11.40;3.13;;;8.80;99.90;;;;;;5043964;28;20105;-40
2023/03/28 08:54:16;;;;;;;14.95;3.00;;;9.00;99.90;;;;;;5044117;28;20025;-39
2023/03/28 08:56:55;;;;;;;17.55;3.55;;;9.10;99.90;;;;;;5043580;28;20372;-40
2023/03/28 08:59:25;;;;;;;14.48;3.28;;;8.90;99.90;;;;;;5047045;28;20033;-40
2023/03/28 09:01:51;;;;;;;15.45;3.53;;;8.30;99.90;;;;;;5044719;28;20013;-40
2023/03/28 09:04:25;;;;;;;8.77;2.67;;;8.50;99.90;;;;;;5043323;28;20524;-41
2023/03/28 09:06:58;;;;;;;14.07;3.75;;;8.40;99.90;;;;;;5044245;28;20017;-40
2023/03/28 09:09:33;;;;;;;7.85;2.85;;;8.20;99.90;;;;;;5050081;28;20530;-41
2023/03/28 09:12:15;;;;;;;9.93;3.20;;;8.20;99.90;;;;;;5045921;28;20390;-40
2023/03/28 09:14:52;;;;;;;14.25;4.38;;;7.90;99.90;;;;;;5050506;28;20017;-40
2023/03/28 09:17:31;;;;;;;11.13;3.00;;;8.40;99.90;;;;;;5048834;28;20029;-40
2023/03/28 09:20:22;;;;;;;12.77;4.10;;;9.10;99.90;;;;;;5050536;28;20017;-41
2023/03/28 09:22:47;;;;;;;10.27;3.22;;;10.30;99.90;;;;;;5047370;28;20137;-41
2023/03/28 09:25:28;;;;;;;11.32;2.60;;;10.50;99.30;;;;;;5055833;28;20112;-41
2023/03/28 09:27:58;;;;;;;;;;;11.90;95.30;;;;;;5045196;28;20017;-42
2023/03/28 09:30:32;;;;;;;8.57;1.98;;;13.20;93.30;;;;;;5042253;28;19905;-42
2023/03/28 09:33:03;;;;;;;9.00;2.10;;;14.40;90.30;;;;;;5044613;28;20498;-41
2023/03/28 09:35:30;;;;;;;8.45;2.70;;;15.30;85.60;;;;;;5053509;28;20033;-41
2023/03/28 09:38:02;;;;;;;7.78;2.28;;;15.80;78.20;;;;;;5046063;28;20063;-42
2023/03/28 09:40:30;;;;;;;7.28;2.55;;;14.50;80.10;;;;;;5043706;28;20025;-42
2023/03/28 09:43:13;;;;;;;5.20;1.60;;;14.70;78.30;;;;;;5044517;28;20021;-41
2023/03/28 09:45:46;;;;;;;7.32;2.30;;;14.10;80.70;;;;;;5043538;28;20046;-41
2023/03/28 09:48:24;;;;;;;8.05;2.72;;;14.50;79.50;;;;;;5043981;28;20107;-41
2023/03/28 09:50:51;;;;;;;11.45;1.90;;;14.80;80.10;;;;;;5043675;28;20104;-42
2023/03/28 09:53:24;;;;;;;7.05;2.33;;;14.20;79.20;;;;;;5047295;28;20017;-41
2023/03/28 09:55:52;;;;;;;9.55;2.00;;;14.00;81.60;;;;;;5049084;28;20029;-41
2023/03/28 09:58:17;;;;;;;6.07;1.98;;;13.20;75.50;;;;;;5041788;28;20117;-40
2023/03/28 10:00:47;;;;;;;7.95;2.33;;;12.50;78.20;;;;;;5044264;28;20063;-40
2023/03/28 10:03:28;;;;;;;8.65;2.20;;;12.60;80.70;;;;;;5043152;28;20028;-41
2023/03/28 10:05:57;;;;;;;12.95;2.58;;;12.10;82.20;;;;;;5073060;28;20125;-41
2023/03/28 10:08:23;;;;;;;7.85;2.47;;;12.30;83.00;;;;;;5044961;28;20028;-41
2023/03/28 10:10:58;;;;;;;50.60;25.20;;;12.00;82.50;;;;;;5044665;28;20021;-42
2023/03/28 10:13:25;;;;;;;9.73;2.38;;;11.70;82.10;;;;;;5041478;28;20017;-41
2023/03/28 10:15:51;;;;;;;5.93;1.77;;;10.80;85.50;;;;;;5044497;28;20021;-40
2023/03/28 10:18:19;;;;;;;8.15;2.00;;;10.40;85.80;;;;;;5045158;28;20083;-41
2023/03/28 10:20:49;;;;;;;14.32;2.55;;;9.80;88.90;;;;;;5048945;28;20273;-41
2023/03/28 10:23:14;;;;;;;11.20;2.28;;;9.40;90.10;;;;;;5047930;28;20025;-42
2023/03/28 10:25:43;;;;;;;5.85;2.05;;;9.20;93.00;;;;;;5049306;28;20024;-41
2023/03/28 10:28:30;;;;;;;7.68;1.70;;;9.00;91.60;;;;;;5048191;28;20110;-41
2023/03/28 10:30:59;;;;;;;7.75;1.70;;;8.70;92.20;;;;;;5049269;28;20021;-41
2023/03/28 10:33:30;;;;;;;8.68;2.40;;;8.50;93.00;;;;;;5048908;28;20115;-40
2023/03/28 10:36:04;;;;;;;14.57;2.53;;;8.40;93.50;;;;;;5048193;28;20021;-41
2023/03/28 10:38:35;;;;;;;15.65;2.65;;;9.60;93.40;;;;;;5048417;28;20387;-40
2023/03/28 10:41:11;;;;;;;7.38;1.90;;;9.90;91.90;;;;;;5049217;28;20036;-41
2023/03/28 10:43:39;;;;;;;13.95;2.67;;;9.80;91.30;;;;;;5049323;28;20036;-41
2023/03/28 10:46:12;;;;;;;10.90;3.03;;;9.20;92.20;;;;;;5049009;28;20025;-40
2023/03/28 10:48:40;;;;;;;7.53;2.17;;;8.90;93.30;;;;;;5049098;28;20040;-41
2023/03/28 10:51:15;;;;;;;6.47;2.38;;;9.00;94.00;;;;;;5048939;28;20037;-40
2023/03/28 10:53:43;;;;;;;11.73;2.00;;;9.20;93.50;;;;;;5047587;28;20252;-41
2023/03/28 10:56:26;;;;;;;10.63;2.40;;;9.40;94.50;;;;;;5046502;28;20198;-41
2023/03/28 10:59:15;;;;;;;8.77;2.50;;;11.00;91.80;;;;;;5048646;28;20103;-41
2023/03/28 11:02:06;;;;;;;9.77;2.00;;;12.60;89.70;;;;;;5049127;28;20035;-41
2023/03/28 11:04:55;;;;;;;9.45;2.50;;;13.40;86.10;;;;;;5048861;28;20059;-42
2023/03/28 11:07:42;;;;;;;6.97;2.00;;;13.60;82.20;;;;;;5047946;28;20506;-42
2023/03/28 11:10:22;;;;;;;11.50;2.20;;;13.30;81.00;;;;;;5048408;28;20039;-41
2023/03/28 11:12:54;;;;;;;10.20;2.00;;;13.20;82.50;;;;;;5047320;28;20028;-42
2023/03/28 11:15:32;;;;;;;8.30;2.35;;;14.00;83.60;;;;;;5046581;28;20033;-41
2023/03/28 11:18:10;;;;;;;12.88;2.33;;;13.60;80.60;;;;;;5044219;28;20039;-41
2023/03/28 11:20:43;;;;;;;10.30;2.30;;;13.00;82.00;;;;;;5047705;28;20074;-42
2023/03/28 11:23:36;;;;;;;8.90;2.47;;;11.80;80.20;;;;;;5048426;28;20488;-40
2023/03/28 11:26:21;;;;;;;7.78;2.20;;;11.10;86.20;;;;;;5046928;28;20167;-42
2023/03/28 11:29:15;;;;;;;11.20;1.95;;;10.60;88.30;;;;;;5048491;28;20609;-40
2023/03/28 11:32:11;;;;;;;11.30;2.33;;;10.80;88.30;;;;;;5049430;28;20028;-41
2023/03/28 11:34:45;;;;;;;11.10;2.00;;;11.30;85.90;;;;;;5050924;28;20032;-41
2023/03/28 11:37:21;;;;;;;7.63;2.17;;;11.40;87.90;;;;;;5047155;28;20029;-41
2023/03/28 11:39:54;;;;;;;9.55;2.13;;;11.80;84.50;;;;;;5050296;28;20025;-42
2023/03/28 11:42:40;;;;;;;6.10;1.70;;;12.10;83.20;;;;;;5062533;28;20107;-41
2023/03/28 11:45:20;;;;;;;10.82;2.47;;;11.80;83.40;;;;;;5067586;28;20030;-41
2023/03/28 11:47:52;;;;;;;8.55;2.17;;;11.50;82.30;;;;;;5067067;28;20127;-49
2023/03/28 11:50:30;;;;;;;9.00;2.30;;;11.10;83.90;;;;;;5067377;28;20391;-42
2023/03/28 11:53:06;;;;;;;18.55;5.43;;;10.50;86.20;;;;;;5067903;28;20028;-41
2023/03/28 11:55:37;;;;;;;10.55;3.10;;;10.50;88.20;;;;;;5067517;28;20024;-41
2023/03/28 11:58:11;;;;;;;8.32;2.05;;;10.40;88.70;;;;;;5058314;28;20012;-41
2023/03/28 12:00:42;;;;;;;6.40;2.72;;;10.10;85.90;;;;;;5054529;28;20356;-41
2023/03/28 12:03:35;;;;;;;5.22;1.67;;;10.10;88.50;;;;;;5067345;28;20020;-40
2023/03/28 12:06:06;;;;;;;13.30;2.65;;;10.00;85.80;;;;;;5067169;28;20020;-41
2023/03/28 12:08:49;;;;;;;7.75;2.40;;;9.80;85.20;;;;;;5050289;28;20027;-42
2023/03/28 12:11:22;;;;;;;9.00;1.98;;;9.60;87.60;;;;;;5046018;28;20025;-40
2023/03/28 12:13:53;;;;;;;5.80;2.17;;;9.70;89.50;;;;;;5047782;28;20071;-42
2023/03/28 12:16:29;;;;;;;9.82;2.42;;;10.10;89.70;;;;;;5046911;28;20045;-40
2023/03/28 12:19:00;;;;;;;6.63;1.95;;;10.20;87.30;;;;;;5044205;28;20025;-40
2023/03/28 12:21:33;;;;;;;10.45;2.30;;;10.70;86.90;;;;;;5043657;28;20025;-42
2023/03/28 12:24:04;;;;;;;9.98;2.80;;;11.10;85.40;;;;;;5043464;28;20028;-41
2023/03/28 12:26:41;;;;;;;6.63;2.03;;;11.20;88.80;;;;;;5038778;28;20075;-41
2023/03/28 12:29:36;;;;;;;9.43;2.38;;;11.20;81.50;;;;;;5040602;28;20594;-41
2023/03/28 12:32:40;;;;;;;6.45;2.17;;;10.70;83.30;;;;;;5040571;28;20116;-40
2023/03/28 12:35:32;;;;;;;13.68;2.60;;;10.40;85.40;;;;;;5027996;28;20422;-41
2023/03/28 12:38:28;;;;;;;7.65;2.15;;;10.10;86.40;;;;;;5069447;28;20979;-42
2023/03/28 12:41:10;;;;;;;6.20;1.77;;;9.60;87.00;;;;;;5040410;28;20027;-41
2023/03/28 12:43:57;;;;;;;11.65;3.13;;;9.20;89.60;;;;;;5040361;28;20010;-41
2023/03/28 12:46:49;;;;;;;10.27;2.55;;;9.00;89.60;;;;;;5040593;28;20028;-41
2023/03/28 12:49:25;;;;;;;8.05;2.03;;;8.70;90.40;;;;;;5044033;28;20032;-41
2023/03/28 12:51:58;;;;;;;7.20;2.00;;;8.70;91.60;;;;;;5046850;28;20526;-41
2023/03/28 12:54:27;;;;;;;8.32;2.75;;;8.50;91.30;;;;;;5047089;28;20636;-41
2023/03/28 12:57:00;;;;;;;7.85;2.30;;;8.40;92.00;;;;;;5046556;28;20113;-42
2023/03/28 12:59:38;;;;;;;20.10;3.25;;;8.60;91.70;;;;;;5041293;28;20100;-42
2023/03/28 13:02:31;;;;;;;12.30;2.70;;;8.70;91.70;;;;;;5046961;28;20509;-42
2023/03/28 13:05:29;;;;;;;11.95;2.83;;;8.70;91.90;;;;;;5047270;28;20032;-43
2023/03/28 13:08:12;;;;;;;4.82;2.10;;;8.70;92.80;;;;;;5045174;28;20041;-42
2023/03/28 13:10:50;;;;;;;10.60;2.25;;;8.40;92.00;;;;;;5048528;28;20009;-42